Aviation Digital Data Service (ADDS)

Output produced by METARs form (1255 UTC 26 March 2019)
found at http://www.aviationweather.gov/metar/data/
 
LDDU 261230Z 03012KT 330V080 CAVOK 16/M01 Q1012 BECMG 02018G30KT
TAF LDDU 261125Z 2612/2712 03017KT 9999 FEW060 TX17/2612Z TN10/2705Z 
     BECMG 2612/2614 03025G35KT 
     BECMG 2707/2709 22008KT
       
LDOS 261230Z 33009KT 270V020 9999 FEW037 12/00 Q1022
TAF LDOS 261125Z 2612/2712 35008KT CAVOK TX13/2614Z TN03/2704Z
       
LDPL 261230Z 08018KT 9999 FEW050 12/M00 Q1020 NOSIG
TAF LDPL 261125Z 2612/2712 06015KT CAVOK TX13/2614Z TN07/2704Z 
     PROB30 
     TEMPO 2612/2712 06018G28KT
       
LDRI 261230Z 08019G34KT 040V130 9999 FEW050 12/M03 Q1019
TAF LDRI 261125Z 2612/2712 05020G40KT CAVOK TX12/2614Z TN08/2702Z 
     BECMG 2615/2617 06015KT 
     TEMPO 2618/2712 VRB10KT 
     PROB30 
     TEMPO 2618/2712 04015G25KT
       
LDSP 261230Z 08016G28KT 9999 FEW045 13/M00 Q1016 NOSIG
TAF LDSP 261125Z 2612/2712 05020G35KT 9999 FEW050 TX15/2711Z TN07/2705Z 
     BECMG 2612/2614 05015G25KT 
     PROB40 
     TEMPO 2618/2708 05020G35KT
       
LDZD 261230Z VRB05KT CAVOK 14/M04 Q1017 NOSIG
TAF LDZD 261125Z 2612/2712 06012KT CAVOK TX13/2612Z TN06/2705Z 
     PROB40 
     TEMPO 2612/2709 05017G27KT
       
LDZA 261230Z 05012KT 020V110 CAVOK 10/M02 Q1023 NOSIG
TAF LDZA 261125Z 2612/2712 05012KT CAVOK TX13/2614Z TN02/2704Z 
     BECMG 2616/2618 05005KT 
     BECMG 2708/2710 05010KT